sensor_id;sensor_type;location;lat;lon;timestamp;P1;durP1;ratioP1;P2;durP2;ratioP2
5833;SDS011;2943;48.012;10.968;2022-08-23T00:01:09;5.87;;;3.90;;
5833;SDS011;2943;48.012;10.968;2022-08-23T00:03:37;4.30;;;3.90;;
5833;SDS011;2943;48.012;10.968;2022-08-23T00:06:08;4.03;;;3.73;;
5833;SDS011;2943;48.012;10.968;2022-08-23T00:08:35;5.23;;;3.83;;
5833;SDS011;2943;48.012;10.968;2022-08-23T00:11:03;5.63;;;3.93;;
5833;SDS011;2943;48.012;10.968;2022-08-23T00:13:30;3.87;;;3.57;;
5833;SDS011;2943;48.012;10.968;2022-08-23T00:15:57;4.40;;;4.03;;
5833;SDS011;2943;48.012;10.968;2022-08-23T00:18:24;4.20;;;3.90;;
5833;SDS011;2943;48.012;10.968;2022-08-23T00:20:51;4.10;;;3.70;;
5833;SDS011;2943;48.012;10.968;2022-08-23T00:23:19;4.43;;;3.70;;
5833;SDS011;2943;48.012;10.968;2022-08-23T00:25:46;4.57;;;3.80;;
5833;SDS011;2943;48.012;10.968;2022-08-23T00:28:13;5.90;;;4.20;;
5833;SDS011;2943;48.012;10.968;2022-08-23T00:30:39;4.43;;;4.03;;
5833;SDS011;2943;48.012;10.968;2022-08-23T00:33:06;7.17;;;4.20;;
5833;SDS011;2943;48.012;10.968;2022-08-23T00:35:34;4.00;;;3.70;;
5833;SDS011;2943;48.012;10.968;2022-08-23T00:38:00;4.37;;;3.73;;
5833;SDS011;2943;48.012;10.968;2022-08-23T00:40:28;6.40;;;4.40;;
5833;SDS011;2943;48.012;10.968;2022-08-23T00:42:56;5.47;;;4.00;;
5833;SDS011;2943;48.012;10.968;2022-08-23T00:45:58;5.07;;;4.60;;
5833;SDS011;2943;48.012;10.968;2022-08-23T00:48:48;5.43;;;3.97;;
5833;SDS011;2943;48.012;10.968;2022-08-23T00:51:16;9.63;;;3.87;;
5833;SDS011;2943;48.012;10.968;2022-08-23T00:53:47;5.70;;;4.00;;
5833;SDS011;2943;48.012;10.968;2022-08-23T00:56:20;5.07;;;4.57;;
5833;SDS011;2943;48.012;10.968;2022-08-23T00:58:50;6.13;;;4.40;;
5833;SDS011;2943;48.012;10.968;2022-08-23T01:01:17;6.63;;;4.10;;
5833;SDS011;2943;48.012;10.968;2022-08-23T01:03:46;4.90;;;4.40;;
5833;SDS011;2943;48.012;10.968;2022-08-23T01:06:17;4.73;;;4.33;;
5833;SDS011;2943;48.012;10.968;2022-08-23T01:08:50;4.57;;;4.20;;
5833;SDS011;2943;48.012;10.968;2022-08-23T01:11:23;5.40;;;4.30;;
5833;SDS011;2943;48.012;10.968;2022-08-23T01:13:58;4.80;;;4.40;;
5833;SDS011;2943;48.012;10.968;2022-08-23T01:16:32;5.03;;;4.53;;
5833;SDS011;2943;48.012;10.968;2022-08-23T01:19:03;6.10;;;4.70;;
5833;SDS011;2943;48.012;10.968;2022-08-23T01:21:37;4.60;;;4.20;;
5833;SDS011;2943;48.012;10.968;2022-08-23T01:24:11;4.90;;;4.27;;
5833;SDS011;2943;48.012;10.968;2022-08-23T01:26:40;4.00;;;3.70;;
5833;SDS011;2943;48.012;10.968;2022-08-23T01:29:07;4.37;;;3.97;;
5833;SDS011;2943;48.012;10.968;2022-08-23T01:31:34;6.00;;;4.80;;
5833;SDS011;2943;48.012;10.968;2022-08-23T01:34:02;4.40;;;4.10;;
5833;SDS011;2943;48.012;10.968;2022-08-23T01:36:32;5.53;;;4.10;;
5833;SDS011;2943;48.012;10.968;2022-08-23T01:38:59;4.77;;;4.37;;
5833;SDS011;2943;48.012;10.968;2022-08-23T01:41:28;9.67;;;4.70;;
5833;SDS011;2943;48.012;10.968;2022-08-23T01:43:55;4.87;;;4.10;;
5833;SDS011;2943;48.012;10.968;2022-08-23T01:46:22;4.37;;;3.97;;
5833;SDS011;2943;48.012;10.968;2022-08-23T01:48:50;4.53;;;4.13;;
5833;SDS011;2943;48.012;10.968;2022-08-23T01:51:19;5.03;;;4.50;;
5833;SDS011;2943;48.012;10.968;2022-08-23T01:53:47;6.13;;;4.03;;
5833;SDS011;2943;48.012;10.968;2022-08-23T01:56:15;4.43;;;4.03;;
5833;SDS011;2943;48.012;10.968;2022-08-23T01:58:45;4.87;;;4.47;;
5833;SDS011;2943;48.012;10.968;2022-08-23T02:01:13;7.23;;;4.70;;
5833;SDS011;2943;48.012;10.968;2022-08-23T02:03:40;4.13;;;3.80;;
5833;SDS011;2943;48.012;10.968;2022-08-23T02:06:06;5.20;;;4.70;;
5833;SDS011;2943;48.012;10.968;2022-08-23T02:08:33;5.77;;;4.70;;
5833;SDS011;2943;48.012;10.968;2022-08-23T02:11:18;4.10;;;3.70;;
5833;SDS011;2943;48.012;10.968;2022-08-23T02:13:48;7.00;;;3.90;;
5833;SDS011;2943;48.012;10.968;2022-08-23T02:16:20;6.13;;;4.00;;
5833;SDS011;2943;48.012;10.968;2022-08-23T02:18:48;4.47;;;4.07;;
5833;SDS011;2943;48.012;10.968;2022-08-23T02:21:16;5.63;;;5.00;;
5833;SDS011;2943;48.012;10.968;2022-08-23T02:23:43;5.73;;;4.47;;
5833;SDS011;2943;48.012;10.968;2022-08-23T02:26:10;4.73;;;4.13;;
5833;SDS011;2943;48.012;10.968;2022-08-23T02:28:37;5.10;;;4.60;;
5833;SDS011;2943;48.012;10.968;2022-08-23T02:31:05;5.03;;;4.53;;
5833;SDS011;2943;48.012;10.968;2022-08-23T02:33:32;6.13;;;5.27;;
5833;SDS011;2943;48.012;10.968;2022-08-23T02:35:59;9.60;;;5.20;;
5833;SDS011;2943;48.012;10.968;2022-08-23T02:38:26;4.90;;;4.50;;
5833;SDS011;2943;48.012;10.968;2022-08-23T02:40:54;4.77;;;4.37;;
5833;SDS011;2943;48.012;10.968;2022-08-23T02:43:20;5.37;;;4.87;;
5833;SDS011;2943;48.012;10.968;2022-08-23T02:45:49;6.43;;;4.47;;
5833;SDS011;2943;48.012;10.968;2022-08-23T02:48:17;4.40;;;4.00;;
5833;SDS011;2943;48.012;10.968;2022-08-23T02:50:45;5.00;;;4.50;;
5833;SDS011;2943;48.012;10.968;2022-08-23T02:53:13;5.33;;;4.70;;
5833;SDS011;2943;48.012;10.968;2022-08-23T02:55:43;5.03;;;4.53;;
5833;SDS011;2943;48.012;10.968;2022-08-23T02:58:10;4.10;;;3.80;;
5833;SDS011;2943;48.012;10.968;2022-08-23T03:00:37;4.43;;;4.03;;
5833;SDS011;2943;48.012;10.968;2022-08-23T03:03:04;4.80;;;4.40;;
5833;SDS011;2943;48.012;10.968;2022-08-23T03:05:32;5.97;;;4.30;;
5833;SDS011;2943;48.012;10.968;2022-08-23T03:07:59;5.07;;;4.23;;
5833;SDS011;2943;48.012;10.968;2022-08-23T03:10:26;4.67;;;4.27;;
5833;SDS011;2943;48.012;10.968;2022-08-23T03:12:53;4.90;;;4.00;;
5833;SDS011;2943;48.012;10.968;2022-08-23T03:15:19;4.77;;;4.27;;
5833;SDS011;2943;48.012;10.968;2022-08-23T03:17:46;5.10;;;4.60;;
5833;SDS011;2943;48.012;10.968;2022-08-23T03:20:13;4.37;;;4.00;;
5833;SDS011;2943;48.012;10.968;2022-08-23T03:22:42;5.90;;;4.67;;
5833;SDS011;2943;48.012;10.968;2022-08-23T03:25:09;6.00;;;4.43;;
5833;SDS011;2943;48.012;10.968;2022-08-23T03:27:36;4.83;;;4.33;;
5833;SDS011;2943;48.012;10.968;2022-08-23T03:30:03;5.23;;;4.70;;
5833;SDS011;2943;48.012;10.968;2022-08-23T03:32:30;4.53;;;4.10;;
5833;SDS011;2943;48.012;10.968;2022-08-23T03:34:57;5.00;;;4.60;;
5833;SDS011;2943;48.012;10.968;2022-08-23T03:37:24;7.27;;;5.13;;
5833;SDS011;2943;48.012;10.968;2022-08-23T03:39:52;5.13;;;4.27;;
5833;SDS011;2943;48.012;10.968;2022-08-23T03:42:19;4.10;;;3.80;;
5833;SDS011;2943;48.012;10.968;2022-08-23T03:44:46;4.40;;;4.10;;
5833;SDS011;2943;48.012;10.968;2022-08-23T03:47:12;4.63;;;4.23;;
5833;SDS011;2943;48.012;10.968;2022-08-23T03:49:39;4.70;;;4.30;;
5833;SDS011;2943;48.012;10.968;2022-08-23T03:52:06;5.30;;;4.87;;
5833;SDS011;2943;48.012;10.968;2022-08-23T03:54:33;4.70;;;4.30;;
5833;SDS011;2943;48.012;10.968;2022-08-23T03:57:03;5.67;;;4.83;;
5833;SDS011;2943;48.012;10.968;2022-08-23T03:59:33;5.60;;;4.40;;
5833;SDS011;2943;48.012;10.968;2022-08-23T04:02:01;6.27;;;4.67;;
5833;SDS011;2943;48.012;10.968;2022-08-23T04:04:28;4.43;;;4.07;;
5833;SDS011;2943;48.012;10.968;2022-08-23T04:06:55;4.30;;;3.90;;
5833;SDS011;2943;48.012;10.968;2022-08-23T04:09:22;6.20;;;4.70;;
5833;SDS011;2943;48.012;10.968;2022-08-23T04:11:51;4.10;;;3.80;;
5833;SDS011;2943;48.012;10.968;2022-08-23T04:14:22;5.07;;;4.57;;
5833;SDS011;2943;48.012;10.968;2022-08-23T04:16:50;4.50;;;4.10;;
5833;SDS011;2943;48.012;10.968;2022-08-23T04:19:20;5.43;;;4.50;;
5833;SDS011;2943;48.012;10.968;2022-08-23T04:21:48;7.50;;;4.40;;
5833;SDS011;2943;48.012;10.968;2022-08-23T04:24:18;5.70;;;5.10;;
5833;SDS011;2943;48.012;10.968;2022-08-23T04:26:47;5.53;;;4.60;;
5833;SDS011;2943;48.012;10.968;2022-08-23T04:29:18;5.33;;;4.83;;
5833;SDS011;2943;48.012;10.968;2022-08-23T04:31:49;6.43;;;5.83;;
5833;SDS011;2943;48.012;10.968;2022-08-23T04:34:18;7.93;;;5.40;;
5833;SDS011;2943;48.012;10.968;2022-08-23T04:36:47;9.00;;;4.60;;
5833;SDS011;2943;48.012;10.968;2022-08-23T04:39:16;5.37;;;4.53;;
5833;SDS011;2943;48.012;10.968;2022-08-23T04:41:46;5.50;;;4.40;;
5833;SDS011;2943;48.012;10.968;2022-08-23T04:44:30;5.50;;;4.40;;
5833;SDS011;2943;48.012;10.968;2022-08-23T04:47:02;4.40;;;4.00;;
5833;SDS011;2943;48.012;10.968;2022-08-23T04:49:32;6.90;;;4.87;;
5833;SDS011;2943;48.012;10.968;2022-08-23T04:52:00;6.57;;;5.33;;
5833;SDS011;2943;48.012;10.968;2022-08-23T04:54:29;5.50;;;5.00;;
5833;SDS011;2943;48.012;10.968;2022-08-23T04:56:59;5.43;;;4.93;;
5833;SDS011;2943;48.012;10.968;2022-08-23T04:59:28;7.60;;;5.10;;
5833;SDS011;2943;48.012;10.968;2022-08-23T05:01:56;6.90;;;4.77;;
5833;SDS011;2943;48.012;10.968;2022-08-23T05:04:27;6.40;;;4.53;;
5833;SDS011;2943;48.012;10.968;2022-08-23T05:13:48;7.80;;;6.00;;
5833;SDS011;2943;48.012;10.968;2022-08-23T05:43:33;5.88;;;4.18;;
5833;SDS011;2943;48.012;10.968;2022-08-23T05:59:31;11.83;;;6.57;;
5833;SDS011;2943;48.012;10.968;2022-08-23T06:01:58;13.10;;;5.97;;
5833;SDS011;2943;48.012;10.968;2022-08-23T06:04:25;12.47;;;7.13;;
5833;SDS011;2943;48.012;10.968;2022-08-23T06:06:52;17.50;;;7.27;;
5833;SDS011;2943;48.012;10.968;2022-08-23T06:09:22;20.03;;;7.70;;
5833;SDS011;2943;48.012;10.968;2022-08-23T06:11:50;15.70;;;8.33;;
5833;SDS011;2943;48.012;10.968;2022-08-23T06:14:17;14.37;;;8.23;;
5833;SDS011;2943;48.012;10.968;2022-08-23T06:16:46;15.83;;;7.50;;
5833;SDS011;2943;48.012;10.968;2022-08-23T06:19:14;13.30;;;7.67;;
5833;SDS011;2943;48.012;10.968;2022-08-23T06:21:41;11.13;;;7.30;;
5833;SDS011;2943;48.012;10.968;2022-08-23T06:24:08;8.53;;;6.47;;
5833;SDS011;2943;48.012;10.968;2022-08-23T06:26:37;9.73;;;6.60;;
5833;SDS011;2943;48.012;10.968;2022-08-23T06:29:06;7.70;;;5.67;;
5833;SDS011;2943;48.012;10.968;2022-08-23T06:31:38;7.30;;;6.20;;
5833;SDS011;2943;48.012;10.968;2022-08-23T06:34:14;8.23;;;6.13;;
5833;SDS011;2943;48.012;10.968;2022-08-23T06:36:44;6.87;;;6.13;;
5833;SDS011;2943;48.012;10.968;2022-08-23T06:39:12;6.77;;;5.90;;
5833;SDS011;2943;48.012;10.968;2022-08-23T06:41:40;6.60;;;5.60;;
5833;SDS011;2943;48.012;10.968;2022-08-23T06:44:08;15.40;;;6.03;;
5833;SDS011;2943;48.012;10.968;2022-08-23T06:46:35;10.13;;;5.80;;
5833;SDS011;2943;48.012;10.968;2022-08-23T06:49:03;5.63;;;5.03;;
5833;SDS011;2943;48.012;10.968;2022-08-23T06:51:33;7.63;;;5.83;;
5833;SDS011;2943;48.012;10.968;2022-08-23T06:54:03;7.20;;;6.30;;
5833;SDS011;2943;48.012;10.968;2022-08-23T06:56:32;5.77;;;5.27;;
5833;SDS011;2943;48.012;10.968;2022-08-23T06:58:59;14.70;;;5.47;;
5833;SDS011;2943;48.012;10.968;2022-08-23T07:01:30;15.60;;;5.20;;
5833;SDS011;2943;48.012;10.968;2022-08-23T07:04:02;6.10;;;5.27;;
5833;SDS011;2943;48.012;10.968;2022-08-23T07:06:45;6.40;;;5.63;;
5833;SDS011;2943;48.012;10.968;2022-08-23T07:09:12;6.37;;;5.13;;
5833;SDS011;2943;48.012;10.968;2022-08-23T07:11:40;6.27;;;5.40;;
5833;SDS011;2943;48.012;10.968;2022-08-23T07:14:08;6.10;;;5.40;;
5833;SDS011;2943;48.012;10.968;2022-08-23T07:16:38;6.03;;;5.40;;
5833;SDS011;2943;48.012;10.968;2022-08-23T07:19:07;6.47;;;5.87;;
5833;SDS011;2943;48.012;10.968;2022-08-23T07:21:34;5.50;;;5.00;;
5833;SDS011;2943;48.012;10.968;2022-08-23T07:24:03;16.87;;;5.47;;
5833;SDS011;2943;48.012;10.968;2022-08-23T07:26:31;6.53;;;5.23;;
5833;SDS011;2943;48.012;10.968;2022-08-23T07:28:58;7.33;;;5.70;;
5833;SDS011;2943;48.012;10.968;2022-08-23T07:31:26;20.20;;;5.40;;
5833;SDS011;2943;48.012;10.968;2022-08-23T07:33:58;6.67;;;5.57;;
5833;SDS011;2943;48.012;10.968;2022-08-23T07:36:26;6.23;;;5.37;;
5833;SDS011;2943;48.012;10.968;2022-08-23T07:38:56;5.30;;;4.80;;
5833;SDS011;2943;48.012;10.968;2022-08-23T07:41:24;8.77;;;5.20;;
5833;SDS011;2943;48.012;10.968;2022-08-23T07:43:54;5.27;;;4.20;;
5833;SDS011;2943;48.012;10.968;2022-08-23T07:46:22;4.40;;;4.00;;
5833;SDS011;2943;48.012;10.968;2022-08-23T07:48:50;4.27;;;3.87;;
5833;SDS011;2943;48.012;10.968;2022-08-23T07:51:17;4.97;;;4.57;;
5833;SDS011;2943;48.012;10.968;2022-08-23T07:53:44;7.03;;;4.17;;
5833;SDS011;2943;48.012;10.968;2022-08-23T07:56:13;4.83;;;4.33;;
5833;SDS011;2943;48.012;10.968;2022-08-23T07:58:41;6.30;;;3.90;;
5833;SDS011;2943;48.012;10.968;2022-08-23T08:01:09;7.93;;;4.53;;
5833;SDS011;2943;48.012;10.968;2022-08-23T08:03:39;7.63;;;4.23;;
5833;SDS011;2943;48.012;10.968;2022-08-23T08:06:08;6.77;;;4.77;;
5833;SDS011;2943;48.012;10.968;2022-08-23T08:08:36;4.40;;;4.00;;
5833;SDS011;2943;48.012;10.968;2022-08-23T08:11:04;6.30;;;4.27;;
5833;SDS011;2943;48.012;10.968;2022-08-23T08:13:33;4.30;;;3.60;;
5833;SDS011;2943;48.012;10.968;2022-08-23T08:16:00;4.37;;;3.97;;
5833;SDS011;2943;48.012;10.968;2022-08-23T08:18:27;4.03;;;3.40;;
5833;SDS011;2943;48.012;10.968;2022-08-23T08:20:54;5.00;;;3.63;;
5833;SDS011;2943;48.012;10.968;2022-08-23T08:23:21;4.90;;;4.23;;
5833;SDS011;2943;48.012;10.968;2022-08-23T08:25:48;4.10;;;3.50;;
5833;SDS011;2943;48.012;10.968;2022-08-23T08:28:25;4.47;;;3.40;;
5833;SDS011;2943;48.012;10.968;2022-08-23T08:30:53;3.87;;;3.50;;
5833;SDS011;2943;48.012;10.968;2022-08-23T08:33:21;5.80;;;3.33;;
5833;SDS011;2943;48.012;10.968;2022-08-23T08:35:48;2.83;;;2.63;;
5833;SDS011;2943;48.012;10.968;2022-08-23T08:38:15;5.80;;;3.20;;
5833;SDS011;2943;48.012;10.968;2022-08-23T08:40:41;5.17;;;3.50;;
5833;SDS011;2943;48.012;10.968;2022-08-23T08:43:13;6.73;;;3.60;;
5833;SDS011;2943;48.012;10.968;2022-08-23T08:45:57;3.83;;;2.73;;
5833;SDS011;2943;48.012;10.968;2022-08-23T08:48:32;4.87;;;3.27;;
5833;SDS011;2943;48.012;10.968;2022-08-23T08:51:06;4.37;;;3.20;;
5833;SDS011;2943;48.012;10.968;2022-08-23T08:53:45;4.10;;;3.40;;
5833;SDS011;2943;48.012;10.968;2022-08-23T08:56:17;4.60;;;3.30;;
5833;SDS011;2943;48.012;10.968;2022-08-23T08:58:48;5.67;;;3.40;;
5833;SDS011;2943;48.012;10.968;2022-08-23T09:01:19;3.63;;;2.80;;
5833;SDS011;2943;48.012;10.968;2022-08-23T09:03:47;3.07;;;2.87;;
5833;SDS011;2943;48.012;10.968;2022-08-23T09:06:16;3.33;;;2.87;;
5833;SDS011;2943;48.012;10.968;2022-08-23T09:08:52;4.33;;;3.27;;
5833;SDS011;2943;48.012;10.968;2022-08-23T09:11:34;3.13;;;2.70;;
5833;SDS011;2943;48.012;10.968;2022-08-23T09:14:15;6.90;;;3.60;;
5833;SDS011;2943;48.012;10.968;2022-08-23T09:16:59;6.60;;;3.50;;
5833;SDS011;2943;48.012;10.968;2022-08-23T09:19:30;8.47;;;3.23;;
5833;SDS011;2943;48.012;10.968;2022-08-23T09:22:01;4.83;;;3.07;;
5833;SDS011;2943;48.012;10.968;2022-08-23T09:24:32;4.70;;;3.10;;
5833;SDS011;2943;48.012;10.968;2022-08-23T09:26:59;5.90;;;3.30;;
5833;SDS011;2943;48.012;10.968;2022-08-23T09:29:28;2.90;;;2.60;;
5833;SDS011;2943;48.012;10.968;2022-08-23T09:31:58;3.17;;;2.87;;
5833;SDS011;2943;48.012;10.968;2022-08-23T09:34:37;3.90;;;3.30;;
5833;SDS011;2943;48.012;10.968;2022-08-23T09:37:10;5.77;;;3.00;;
5833;SDS011;2943;48.012;10.968;2022-08-23T09:39:42;4.07;;;3.50;;
5833;SDS011;2943;48.012;10.968;2022-08-23T09:42:24;2.87;;;2.50;;
5833;SDS011;2943;48.012;10.968;2022-08-23T09:44:52;3.23;;;2.93;;
5833;SDS011;2943;48.012;10.968;2022-08-23T09:47:29;4.17;;;2.90;;
5833;SDS011;2943;48.012;10.968;2022-08-23T09:50:05;2.90;;;2.57;;
5833;SDS011;2943;48.012;10.968;2022-08-23T09:52:36;5.47;;;3.20;;
5833;SDS011;2943;48.012;10.968;2022-08-23T09:55:05;2.77;;;2.57;;
5833;SDS011;2943;48.012;10.968;2022-08-23T09:57:35;2.70;;;2.27;;
5833;SDS011;2943;48.012;10.968;2022-08-23T10:00:17;3.60;;;2.70;;
5833;SDS011;2943;48.012;10.968;2022-08-23T10:02:50;3.43;;;3.00;;
5833;SDS011;2943;48.012;10.968;2022-08-23T10:05:27;5.60;;;3.00;;
5833;SDS011;2943;48.012;10.968;2022-08-23T10:07:56;6.97;;;2.50;;
5833;SDS011;2943;48.012;10.968;2022-08-23T10:10:28;7.50;;;2.47;;
5833;SDS011;2943;48.012;10.968;2022-08-23T10:13:00;4.33;;;3.07;;
5833;SDS011;2943;48.012;10.968;2022-08-23T10:15:33;3.23;;;2.63;;
5833;SDS011;2943;48.012;10.968;2022-08-23T10:18:09;3.07;;;2.43;;
5833;SDS011;2943;48.012;10.968;2022-08-23T10:20:46;6.70;;;2.90;;
5833;SDS011;2943;48.012;10.968;2022-08-23T10:23:20;3.70;;;2.47;;
5833;SDS011;2943;48.012;10.968;2022-08-23T10:26:01;4.90;;;2.93;;
5833;SDS011;2943;48.012;10.968;2022-08-23T10:28:31;4.00;;;2.60;;
5833;SDS011;2943;48.012;10.968;2022-08-23T10:31:29;2.20;;;2.10;;
5833;SDS011;2943;48.012;10.968;2022-08-23T10:34:05;5.67;;;2.97;;
5833;SDS011;2943;48.012;10.968;2022-08-23T10:36:42;10.10;;;2.80;;
5833;SDS011;2943;48.012;10.968;2022-08-23T10:39:23;2.73;;;2.20;;
5833;SDS011;2943;48.012;10.968;2022-08-23T10:41:53;2.70;;;2.10;;
5833;SDS011;2943;48.012;10.968;2022-08-23T10:44:30;2.73;;;2.10;;
5833;SDS011;2943;48.012;10.968;2022-08-23T10:47:06;7.10;;;2.30;;
5833;SDS011;2943;48.012;10.968;2022-08-23T10:49:49;4.90;;;2.70;;
5833;SDS011;2943;48.012;10.968;2022-08-23T10:52:19;3.70;;;2.73;;
5833;SDS011;2943;48.012;10.968;2022-08-23T10:54:49;4.63;;;2.80;;
5833;SDS011;2943;48.012;10.968;2022-08-23T10:57:26;5.93;;;2.60;;
5833;SDS011;2943;48.012;10.968;2022-08-23T10:59:58;5.87;;;3.17;;
5833;SDS011;2943;48.012;10.968;2022-08-23T11:02:28;3.30;;;2.60;;
5833;SDS011;2943;48.012;10.968;2022-08-23T11:05:04;4.00;;;2.27;;
5833;SDS011;2943;48.012;10.968;2022-08-23T11:07:33;3.23;;;2.43;;
5833;SDS011;2943;48.012;10.968;2022-08-23T11:10:09;7.70;;;2.23;;
5833;SDS011;2943;48.012;10.968;2022-08-23T11:12:48;8.20;;;2.37;;
5833;SDS011;2943;48.012;10.968;2022-08-23T11:15:21;3.30;;;2.30;;
5833;SDS011;2943;48.012;10.968;2022-08-23T11:17:55;3.50;;;2.43;;
5833;SDS011;2943;48.012;10.968;2022-08-23T11:23:36;6.00;;;2.40;;
5833;SDS011;2943;48.012;10.968;2022-08-23T11:29:27;5.37;;;2.30;;
5833;SDS011;2943;48.012;10.968;2022-08-23T11:31:58;3.60;;;2.20;;
5833;SDS011;2943;48.012;10.968;2022-08-23T11:34:32;3.07;;;2.30;;
5833;SDS011;2943;48.012;10.968;2022-08-23T11:37:23;2.90;;;2.30;;
5833;SDS011;2943;48.012;10.968;2022-08-23T11:40:01;2.37;;;2.20;;
5833;SDS011;2943;48.012;10.968;2022-08-23T11:42:43;3.80;;;2.20;;
5833;SDS011;2943;48.012;10.968;2022-08-23T11:45:19;2.70;;;2.30;;
5833;SDS011;2943;48.012;10.968;2022-08-23T11:47:50;2.60;;;2.40;;
5833;SDS011;2943;48.012;10.968;2022-08-23T11:50:36;4.73;;;1.97;;
5833;SDS011;2943;48.012;10.968;2022-08-23T11:53:25;4.03;;;2.10;;
5833;SDS011;2943;48.012;10.968;2022-08-23T11:58:57;5.33;;;2.50;;
5833;SDS011;2943;48.012;10.968;2022-08-23T12:01:38;10.00;;;2.30;;
5833;SDS011;2943;48.012;10.968;2022-08-23T12:04:07;3.83;;;2.80;;
5833;SDS011;2943;48.012;10.968;2022-08-23T12:06:44;3.30;;;2.10;;
5833;SDS011;2943;48.012;10.968;2022-08-23T12:09:46;5.63;;;2.50;;
5833;SDS011;2943;48.012;10.968;2022-08-23T12:12:25;5.50;;;2.30;;
5833;SDS011;2943;48.012;10.968;2022-08-23T12:14:55;3.77;;;2.40;;
5833;SDS011;2943;48.012;10.968;2022-08-23T12:20:29;2.23;;;2.07;;
5833;SDS011;2943;48.012;10.968;2022-08-23T12:22:59;13.27;;;2.93;;
5833;SDS011;2943;48.012;10.968;2022-08-23T12:25:33;2.53;;;2.33;;
5833;SDS011;2943;48.012;10.968;2022-08-23T12:28:01;9.50;;;2.63;;
5833;SDS011;2943;48.012;10.968;2022-08-23T12:30:36;2.67;;;2.33;;
5833;SDS011;2943;48.012;10.968;2022-08-23T12:33:24;3.97;;;2.50;;
5833;SDS011;2943;48.012;10.968;2022-08-23T12:36:00;2.10;;;1.90;;
5833;SDS011;2943;48.012;10.968;2022-08-23T12:38:36;5.83;;;2.13;;
5833;SDS011;2943;48.012;10.968;2022-08-23T12:41:17;14.10;;;2.70;;
5833;SDS011;2943;48.012;10.968;2022-08-23T12:43:54;6.93;;;2.53;;
5833;SDS011;2943;48.012;10.968;2022-08-23T12:46:35;5.87;;;2.40;;
5833;SDS011;2943;48.012;10.968;2022-08-23T12:49:04;3.53;;;2.00;;
5833;SDS011;2943;48.012;10.968;2022-08-23T12:51:38;3.70;;;2.60;;
5833;SDS011;2943;48.012;10.968;2022-08-23T12:54:13;2.23;;;2.03;;
5833;SDS011;2943;48.012;10.968;2022-08-23T12:56:45;14.63;;;2.73;;
5833;SDS011;2943;48.012;10.968;2022-08-23T12:59:24;4.73;;;2.47;;
5833;SDS011;2943;48.012;10.968;2022-08-23T13:01:57;2.17;;;2.00;;
5833;SDS011;2943;48.012;10.968;2022-08-23T13:04:24;2.90;;;2.00;;
5833;SDS011;2943;48.012;10.968;2022-08-23T13:06:53;2.50;;;2.30;;
5833;SDS011;2943;48.012;10.968;2022-08-23T13:09:24;8.27;;;2.53;;
5833;SDS011;2943;48.012;10.968;2022-08-23T13:11:55;3.50;;;2.50;;
5833;SDS011;2943;48.012;10.968;2022-08-23T13:14:24;7.53;;;2.50;;
5833;SDS011;2943;48.012;10.968;2022-08-23T13:16:52;3.10;;;2.10;;
5833;SDS011;2943;48.012;10.968;2022-08-23T13:19:23;3.10;;;2.17;;
5833;SDS011;2943;48.012;10.968;2022-08-23T13:24:57;7.07;;;2.30;;
5833;SDS011;2943;48.012;10.968;2022-08-23T13:27:30;3.70;;;2.53;;
5833;SDS011;2943;48.012;10.968;2022-08-23T13:29:59;2.80;;;2.30;;
5833;SDS011;2943;48.012;10.968;2022-08-23T13:32:37;6.27;;;2.07;;
5833;SDS011;2943;48.012;10.968;2022-08-23T13:35:22;3.20;;;2.23;;
5833;SDS011;2943;48.012;10.968;2022-08-23T13:37:51;3.70;;;2.30;;
5833;SDS011;2943;48.012;10.968;2022-08-23T13:40:21;3.10;;;2.03;;
5833;SDS011;2943;48.012;10.968;2022-08-23T13:42:52;2.97;;;2.53;;
5833;SDS011;2943;48.012;10.968;2022-08-23T13:45:24;2.50;;;2.17;;
5833;SDS011;2943;48.012;10.968;2022-08-23T13:47:54;3.43;;;2.27;;
5833;SDS011;2943;48.012;10.968;2022-08-23T13:50:23;3.10;;;2.30;;
5833;SDS011;2943;48.012;10.968;2022-08-23T13:52:52;4.47;;;2.50;;
5833;SDS011;2943;48.012;10.968;2022-08-23T13:55:19;3.63;;;2.67;;
5833;SDS011;2943;48.012;10.968;2022-08-23T13:57:46;6.73;;;2.27;;
5833;SDS011;2943;48.012;10.968;2022-08-23T14:00:15;2.80;;;2.30;;
5833;SDS011;2943;48.012;10.968;2022-08-23T14:02:43;3.43;;;2.23;;
5833;SDS011;2943;48.012;10.968;2022-08-23T14:05:13;3.80;;;2.07;;
5833;SDS011;2943;48.012;10.968;2022-08-23T14:07:42;5.20;;;2.50;;
5833;SDS011;2943;48.012;10.968;2022-08-23T14:10:10;3.20;;;2.43;;
5833;SDS011;2943;48.012;10.968;2022-08-23T14:12:37;4.17;;;2.20;;
5833;SDS011;2943;48.012;10.968;2022-08-23T14:15:05;3.53;;;2.50;;
5833;SDS011;2943;48.012;10.968;2022-08-23T14:17:34;3.00;;;2.10;;
5833;SDS011;2943;48.012;10.968;2022-08-23T14:20:06;3.50;;;2.10;;
5833;SDS011;2943;48.012;10.968;2022-08-23T14:22:35;2.20;;;2.00;;
5833;SDS011;2943;48.012;10.968;2022-08-23T14:25:02;4.03;;;2.70;;
5833;SDS011;2943;48.012;10.968;2022-08-23T14:27:30;5.00;;;2.50;;
5833;SDS011;2943;48.012;10.968;2022-08-23T14:29:57;3.30;;;2.60;;
5833;SDS011;2943;48.012;10.968;2022-08-23T14:32:25;3.30;;;2.27;;
5833;SDS011;2943;48.012;10.968;2022-08-23T14:34:53;2.20;;;2.00;;
5833;SDS011;2943;48.012;10.968;2022-08-23T14:37:20;4.87;;;2.73;;
5833;SDS011;2943;48.012;10.968;2022-08-23T14:39:47;3.60;;;2.20;;
5833;SDS011;2943;48.012;10.968;2022-08-23T14:42:15;3.87;;;2.30;;
5833;SDS011;2943;48.012;10.968;2022-08-23T14:44:45;9.50;;;2.53;;
5833;SDS011;2943;48.012;10.968;2022-08-23T14:47:12;6.47;;;2.60;;
5833;SDS011;2943;48.012;10.968;2022-08-23T14:49:38;4.57;;;2.60;;
5833;SDS011;2943;48.012;10.968;2022-08-23T14:52:07;4.47;;;2.50;;
5833;SDS011;2943;48.012;10.968;2022-08-23T14:54:34;3.57;;;2.67;;
5833;SDS011;2943;48.012;10.968;2022-08-23T14:57:01;6.83;;;2.90;;
5833;SDS011;2943;48.012;10.968;2022-08-23T14:59:28;2.47;;;2.27;;
5833;SDS011;2943;48.012;10.968;2022-08-23T15:01:54;5.40;;;2.40;;
5833;SDS011;2943;48.012;10.968;2022-08-23T15:04:23;2.97;;;2.63;;
5833;SDS011;2943;48.012;10.968;2022-08-23T15:06:50;4.03;;;2.37;;
5833;SDS011;2943;48.012;10.968;2022-08-23T15:09:20;2.70;;;2.30;;
5833;SDS011;2943;48.012;10.968;2022-08-23T15:11:47;4.10;;;2.20;;
5833;SDS011;2943;48.012;10.968;2022-08-23T15:14:14;8.97;;;2.30;;
5833;SDS011;2943;48.012;10.968;2022-08-23T15:16:41;2.70;;;2.50;;
5833;SDS011;2943;48.012;10.968;2022-08-23T15:19:08;3.73;;;2.67;;
5833;SDS011;2943;48.012;10.968;2022-08-23T15:21:35;2.80;;;2.37;;
5833;SDS011;2943;48.012;10.968;2022-08-23T15:24:02;4.90;;;2.70;;
5833;SDS011;2943;48.012;10.968;2022-08-23T15:26:31;4.57;;;2.30;;
5833;SDS011;2943;48.012;10.968;2022-08-23T15:29:00;3.57;;;2.40;;
5833;SDS011;2943;48.012;10.968;2022-08-23T15:31:27;2.23;;;2.13;;
5833;SDS011;2943;48.012;10.968;2022-08-23T15:33:54;5.63;;;2.77;;
5833;SDS011;2943;48.012;10.968;2022-08-23T15:36:21;5.30;;;2.90;;
5833;SDS011;2943;48.012;10.968;2022-08-23T15:38:48;3.80;;;2.50;;
5833;SDS011;2943;48.012;10.968;2022-08-23T15:41:15;15.33;;;3.07;;
5833;SDS011;2943;48.012;10.968;2022-08-23T15:43:45;4.03;;;2.27;;
5833;SDS011;2943;48.012;10.968;2022-08-23T15:46:15;2.37;;;2.10;;
5833;SDS011;2943;48.012;10.968;2022-08-23T15:48:45;4.47;;;2.30;;
5833;SDS011;2943;48.012;10.968;2022-08-23T15:51:16;6.93;;;2.80;;
5833;SDS011;2943;48.012;10.968;2022-08-23T15:53:43;3.97;;;2.67;;
5833;SDS011;2943;48.012;10.968;2022-08-23T15:56:12;2.90;;;2.70;;
5833;SDS011;2943;48.012;10.968;2022-08-23T15:58:42;2.90;;;2.60;;
5833;SDS011;2943;48.012;10.968;2022-08-23T16:01:10;4.10;;;2.77;;
5833;SDS011;2943;48.012;10.968;2022-08-23T16:03:37;6.40;;;2.73;;
5833;SDS011;2943;48.012;10.968;2022-08-23T16:06:06;3.77;;;3.07;;
5833;SDS011;2943;48.012;10.968;2022-08-23T16:08:35;3.33;;;2.40;;
5833;SDS011;2943;48.012;10.968;2022-08-23T16:11:04;8.80;;;2.57;;
5833;SDS011;2943;48.012;10.968;2022-08-23T16:13:36;12.50;;;3.00;;
5833;SDS011;2943;48.012;10.968;2022-08-23T16:16:05;4.13;;;2.50;;
5833;SDS011;2943;48.012;10.968;2022-08-23T16:18:34;4.50;;;2.50;;
5833;SDS011;2943;48.012;10.968;2022-08-23T16:21:03;10.90;;;2.60;;
5833;SDS011;2943;48.012;10.968;2022-08-23T16:23:30;2.63;;;2.43;;